sensor_id;sensor_type;location;lat;lon;timestamp;P1;durP1;ratioP1;P2;durP2;ratioP2
5682;SDS011;2864;49.220;8.654;2023-02-10T00:01:31;41.57;;;20.67;;
5682;SDS011;2864;49.220;8.654;2023-02-10T00:03:57;42.83;;;21.40;;
5682;SDS011;2864;49.220;8.654;2023-02-10T00:06:23;38.53;;;20.57;;
5682;SDS011;2864;49.220;8.654;2023-02-10T00:08:52;37.97;;;21.13;;
5682;SDS011;2864;49.220;8.654;2023-02-10T00:11:18;38.17;;;20.03;;
5682;SDS011;2864;49.220;8.654;2023-02-10T00:13:44;40.13;;;21.17;;
5682;SDS011;2864;49.220;8.654;2023-02-10T00:16:11;36.53;;;19.37;;
5682;SDS011;2864;49.220;8.654;2023-02-10T00:18:37;44.60;;;21.23;;
5682;SDS011;2864;49.220;8.654;2023-02-10T00:21:10;41.83;;;20.57;;
5682;SDS011;2864;49.220;8.654;2023-02-10T00:23:37;40.57;;;20.90;;
5682;SDS011;2864;49.220;8.654;2023-02-10T00:26:04;41.23;;;20.57;;
5682;SDS011;2864;49.220;8.654;2023-02-10T00:28:31;42.10;;;20.60;;
5682;SDS011;2864;49.220;8.654;2023-02-10T00:30:57;43.20;;;21.13;;
5682;SDS011;2864;49.220;8.654;2023-02-10T00:33:23;45.27;;;21.70;;
5682;SDS011;2864;49.220;8.654;2023-02-10T00:35:49;37.53;;;20.10;;
5682;SDS011;2864;49.220;8.654;2023-02-10T00:38:15;45.83;;;21.63;;
5682;SDS011;2864;49.220;8.654;2023-02-10T00:40:42;37.93;;;20.93;;
5682;SDS011;2864;49.220;8.654;2023-02-10T00:43:08;38.67;;;20.30;;
5682;SDS011;2864;49.220;8.654;2023-02-10T00:45:34;38.07;;;19.70;;
5682;SDS011;2864;49.220;8.654;2023-02-10T00:48:00;39.17;;;19.73;;
5682;SDS011;2864;49.220;8.654;2023-02-10T00:50:26;40.23;;;21.67;;
5682;SDS011;2864;49.220;8.654;2023-02-10T00:52:52;37.47;;;21.20;;
5682;SDS011;2864;49.220;8.654;2023-02-10T00:55:18;40.83;;;21.30;;
5682;SDS011;2864;49.220;8.654;2023-02-10T00:57:44;41.93;;;20.97;;
5682;SDS011;2864;49.220;8.654;2023-02-10T01:00:10;37.70;;;20.90;;
5682;SDS011;2864;49.220;8.654;2023-02-10T01:02:36;37.83;;;20.27;;
5682;SDS011;2864;49.220;8.654;2023-02-10T01:05:02;44.50;;;20.80;;
5682;SDS011;2864;49.220;8.654;2023-02-10T01:07:28;41.30;;;21.33;;
5682;SDS011;2864;49.220;8.654;2023-02-10T01:09:55;40.53;;;20.97;;
5682;SDS011;2864;49.220;8.654;2023-02-10T01:12:20;38.53;;;21.77;;
5682;SDS011;2864;49.220;8.654;2023-02-10T01:14:46;43.53;;;20.43;;
5682;SDS011;2864;49.220;8.654;2023-02-10T01:17:12;40.63;;;21.47;;
5682;SDS011;2864;49.220;8.654;2023-02-10T01:19:38;37.40;;;20.57;;
5682;SDS011;2864;49.220;8.654;2023-02-10T01:22:04;46.80;;;21.57;;
5682;SDS011;2864;49.220;8.654;2023-02-10T01:24:30;40.40;;;20.63;;
5682;SDS011;2864;49.220;8.654;2023-02-10T01:26:56;38.03;;;19.90;;
5682;SDS011;2864;49.220;8.654;2023-02-10T01:29:22;42.33;;;20.13;;
5682;SDS011;2864;49.220;8.654;2023-02-10T01:31:48;43.00;;;20.43;;
5682;SDS011;2864;49.220;8.654;2023-02-10T01:34:14;39.80;;;21.03;;
5682;SDS011;2864;49.220;8.654;2023-02-10T01:36:40;44.93;;;22.67;;
5682;SDS011;2864;49.220;8.654;2023-02-10T01:39:07;41.37;;;20.60;;
5682;SDS011;2864;49.220;8.654;2023-02-10T01:41:33;45.67;;;21.83;;
5682;SDS011;2864;49.220;8.654;2023-02-10T01:46:32;41.07;;;19.67;;
5682;SDS011;2864;49.220;8.654;2023-02-10T01:49:09;44.83;;;21.60;;
5682;SDS011;2864;49.220;8.654;2023-02-10T01:51:38;42.73;;;21.70;;
5682;SDS011;2864;49.220;8.654;2023-02-10T01:54:07;44.90;;;21.97;;
5682;SDS011;2864;49.220;8.654;2023-02-10T01:56:36;43.07;;;21.07;;
5682;SDS011;2864;49.220;8.654;2023-02-10T01:59:02;39.33;;;18.93;;
5682;SDS011;2864;49.220;8.654;2023-02-10T02:01:28;41.33;;;20.03;;
5682;SDS011;2864;49.220;8.654;2023-02-10T02:03:54;40.97;;;20.20;;
5682;SDS011;2864;49.220;8.654;2023-02-10T02:06:20;40.77;;;20.97;;
5682;SDS011;2864;49.220;8.654;2023-02-10T02:08:47;41.63;;;20.90;;
5682;SDS011;2864;49.220;8.654;2023-02-10T02:18:43;41.80;;;20.50;;
5682;SDS011;2864;49.220;8.654;2023-02-10T02:21:50;38.80;;;20.47;;
5682;SDS011;2864;49.220;8.654;2023-02-10T02:31:58;47.03;;;21.67;;
5682;SDS011;2864;49.220;8.654;2023-02-10T02:34:37;42.30;;;20.83;;
5682;SDS011;2864;49.220;8.654;2023-02-10T02:37:24;44.17;;;22.03;;
5682;SDS011;2864;49.220;8.654;2023-02-10T02:39:54;41.60;;;20.90;;
5682;SDS011;2864;49.220;8.654;2023-02-10T02:42:29;42.63;;;20.83;;
5682;SDS011;2864;49.220;8.654;2023-02-10T02:45:08;36.27;;;20.57;;
5682;SDS011;2864;49.220;8.654;2023-02-10T02:50:33;38.13;;;20.07;;
5682;SDS011;2864;49.220;8.654;2023-02-10T02:58:44;43.50;;;20.07;;
5682;SDS011;2864;49.220;8.654;2023-02-10T03:01:13;44.70;;;21.10;;
5682;SDS011;2864;49.220;8.654;2023-02-10T03:03:39;40.03;;;20.73;;
5682;SDS011;2864;49.220;8.654;2023-02-10T03:06:20;38.27;;;19.43;;
5682;SDS011;2864;49.220;8.654;2023-02-10T03:08:46;43.23;;;20.80;;
5682;SDS011;2864;49.220;8.654;2023-02-10T03:11:12;41.03;;;20.03;;
5682;SDS011;2864;49.220;8.654;2023-02-10T03:13:38;39.77;;;20.17;;
5682;SDS011;2864;49.220;8.654;2023-02-10T03:16:04;43.43;;;21.30;;
5682;SDS011;2864;49.220;8.654;2023-02-10T03:18:30;39.57;;;20.77;;
5682;SDS011;2864;49.220;8.654;2023-02-10T03:20:56;43.90;;;20.53;;
5682;SDS011;2864;49.220;8.654;2023-02-10T03:23:22;40.43;;;20.97;;
5682;SDS011;2864;49.220;8.654;2023-02-10T03:25:48;39.40;;;21.20;;
5682;SDS011;2864;49.220;8.654;2023-02-10T03:28:14;38.53;;;20.67;;
5682;SDS011;2864;49.220;8.654;2023-02-10T03:30:40;39.87;;;20.50;;
5682;SDS011;2864;49.220;8.654;2023-02-10T03:33:14;35.80;;;20.57;;
5682;SDS011;2864;49.220;8.654;2023-02-10T03:35:41;39.97;;;20.13;;
5682;SDS011;2864;49.220;8.654;2023-02-10T03:38:08;42.10;;;20.40;;
5682;SDS011;2864;49.220;8.654;2023-02-10T03:40:34;43.87;;;20.53;;
5682;SDS011;2864;49.220;8.654;2023-02-10T03:43:00;43.00;;;20.77;;
5682;SDS011;2864;49.220;8.654;2023-02-10T03:45:26;38.17;;;19.73;;
5682;SDS011;2864;49.220;8.654;2023-02-10T03:47:52;40.57;;;21.13;;
5682;SDS011;2864;49.220;8.654;2023-02-10T03:50:18;39.20;;;20.30;;
5682;SDS011;2864;49.220;8.654;2023-02-10T03:52:44;37.63;;;20.07;;
5682;SDS011;2864;49.220;8.654;2023-02-10T03:55:10;38.43;;;19.27;;
5682;SDS011;2864;49.220;8.654;2023-02-10T03:57:42;44.50;;;21.27;;
5682;SDS011;2864;49.220;8.654;2023-02-10T04:00:08;42.83;;;22.20;;
5682;SDS011;2864;49.220;8.654;2023-02-10T04:02:35;37.83;;;20.47;;
5682;SDS011;2864;49.220;8.654;2023-02-10T04:05:01;41.73;;;21.30;;
5682;SDS011;2864;49.220;8.654;2023-02-10T04:07:27;39.43;;;20.20;;
5682;SDS011;2864;49.220;8.654;2023-02-10T04:09:53;39.83;;;21.77;;
5682;SDS011;2864;49.220;8.654;2023-02-10T04:12:19;44.00;;;21.60;;
5682;SDS011;2864;49.220;8.654;2023-02-10T04:14:45;37.93;;;20.00;;
5682;SDS011;2864;49.220;8.654;2023-02-10T04:17:11;44.03;;;22.03;;
5682;SDS011;2864;49.220;8.654;2023-02-10T04:19:37;38.40;;;19.43;;
5682;SDS011;2864;49.220;8.654;2023-02-10T04:22:02;38.40;;;19.83;;
5682;SDS011;2864;49.220;8.654;2023-02-10T04:24:28;38.37;;;20.40;;
5682;SDS011;2864;49.220;8.654;2023-02-10T04:26:54;46.80;;;21.77;;
5682;SDS011;2864;49.220;8.654;2023-02-10T04:29:21;47.17;;;21.53;;
5682;SDS011;2864;49.220;8.654;2023-02-10T04:31:47;40.33;;;20.73;;
5682;SDS011;2864;49.220;8.654;2023-02-10T04:34:13;36.50;;;20.03;;
5682;SDS011;2864;49.220;8.654;2023-02-10T04:36:39;39.20;;;20.87;;
5682;SDS011;2864;49.220;8.654;2023-02-10T04:39:05;46.73;;;21.10;;
5682;SDS011;2864;49.220;8.654;2023-02-10T04:41:30;44.33;;;21.60;;
5682;SDS011;2864;49.220;8.654;2023-02-10T04:43:56;45.50;;;22.07;;
5682;SDS011;2864;49.220;8.654;2023-02-10T04:46:22;43.30;;;22.60;;
5682;SDS011;2864;49.220;8.654;2023-02-10T04:48:48;39.07;;;21.67;;
5682;SDS011;2864;49.220;8.654;2023-02-10T04:51:14;45.13;;;22.43;;
5682;SDS011;2864;49.220;8.654;2023-02-10T04:53:40;47.03;;;21.70;;
5682;SDS011;2864;49.220;8.654;2023-02-10T04:56:08;47.20;;;21.60;;
5682;SDS011;2864;49.220;8.654;2023-02-10T04:58:34;41.00;;;21.63;;
5682;SDS011;2864;49.220;8.654;2023-02-10T05:01:00;44.10;;;22.53;;
5682;SDS011;2864;49.220;8.654;2023-02-10T05:03:26;44.67;;;23.17;;
5682;SDS011;2864;49.220;8.654;2023-02-10T05:05:52;42.27;;;22.63;;
5682;SDS011;2864;49.220;8.654;2023-02-10T05:08:19;46.83;;;23.70;;
5682;SDS011;2864;49.220;8.654;2023-02-10T05:10:49;48.70;;;23.60;;
5682;SDS011;2864;49.220;8.654;2023-02-10T05:13:15;43.67;;;24.37;;
5682;SDS011;2864;49.220;8.654;2023-02-10T05:15:41;54.63;;;24.63;;
5682;SDS011;2864;49.220;8.654;2023-02-10T05:18:07;47.00;;;23.50;;
5682;SDS011;2864;49.220;8.654;2023-02-10T05:20:33;47.30;;;23.47;;
5682;SDS011;2864;49.220;8.654;2023-02-10T05:22:59;44.90;;;23.30;;
5682;SDS011;2864;49.220;8.654;2023-02-10T05:25:25;44.77;;;22.47;;
5682;SDS011;2864;49.220;8.654;2023-02-10T05:27:51;44.83;;;22.70;;
5682;SDS011;2864;49.220;8.654;2023-02-10T05:30:17;45.93;;;22.23;;
5682;SDS011;2864;49.220;8.654;2023-02-10T05:32:43;44.93;;;23.50;;
5682;SDS011;2864;49.220;8.654;2023-02-10T05:35:09;38.60;;;21.67;;
5682;SDS011;2864;49.220;8.654;2023-02-10T05:37:35;46.33;;;22.73;;
5682;SDS011;2864;49.220;8.654;2023-02-10T05:40:01;46.93;;;23.43;;
5682;SDS011;2864;49.220;8.654;2023-02-10T05:42:27;45.70;;;22.47;;
5682;SDS011;2864;49.220;8.654;2023-02-10T05:44:56;47.97;;;23.97;;
5682;SDS011;2864;49.220;8.654;2023-02-10T05:47:22;49.93;;;24.67;;
5682;SDS011;2864;49.220;8.654;2023-02-10T05:49:48;51.97;;;24.63;;
5682;SDS011;2864;49.220;8.654;2023-02-10T05:52:14;53.13;;;24.93;;
5682;SDS011;2864;49.220;8.654;2023-02-10T05:54:40;45.60;;;23.80;;
5682;SDS011;2864;49.220;8.654;2023-02-10T05:57:06;49.93;;;25.07;;
5682;SDS011;2864;49.220;8.654;2023-02-10T05:59:32;55.43;;;27.50;;
5682;SDS011;2864;49.220;8.654;2023-02-10T06:01:58;53.47;;;28.10;;
5682;SDS011;2864;49.220;8.654;2023-02-10T06:04:24;57.23;;;29.23;;
5682;SDS011;2864;49.220;8.654;2023-02-10T06:06:50;55.73;;;26.80;;
5682;SDS011;2864;49.220;8.654;2023-02-10T06:09:16;52.20;;;27.17;;
5682;SDS011;2864;49.220;8.654;2023-02-10T06:11:42;52.83;;;25.53;;
5682;SDS011;2864;49.220;8.654;2023-02-10T06:14:08;48.47;;;24.63;;
5682;SDS011;2864;49.220;8.654;2023-02-10T06:16:34;50.97;;;26.17;;
5682;SDS011;2864;49.220;8.654;2023-02-10T06:19:00;53.93;;;26.97;;
5682;SDS011;2864;49.220;8.654;2023-02-10T06:21:26;49.20;;;25.57;;
5682;SDS011;2864;49.220;8.654;2023-02-10T06:23:52;53.37;;;26.23;;
5682;SDS011;2864;49.220;8.654;2023-02-10T06:26:18;48.93;;;24.87;;
5682;SDS011;2864;49.220;8.654;2023-02-10T06:28:44;48.80;;;23.50;;
5682;SDS011;2864;49.220;8.654;2023-02-10T06:31:10;53.63;;;25.87;;
5682;SDS011;2864;49.220;8.654;2023-02-10T06:33:36;52.40;;;24.80;;
5682;SDS011;2864;49.220;8.654;2023-02-10T06:36:03;47.97;;;25.03;;
5682;SDS011;2864;49.220;8.654;2023-02-10T06:38:31;46.60;;;24.60;;
5682;SDS011;2864;49.220;8.654;2023-02-10T06:40:57;51.67;;;26.47;;
5682;SDS011;2864;49.220;8.654;2023-02-10T06:43:23;53.67;;;26.57;;
5682;SDS011;2864;49.220;8.654;2023-02-10T06:45:49;54.10;;;25.80;;
5682;SDS011;2864;49.220;8.654;2023-02-10T06:48:15;58.10;;;28.73;;
5682;SDS011;2864;49.220;8.654;2023-02-10T06:50:41;61.17;;;28.03;;
5682;SDS011;2864;49.220;8.654;2023-02-10T06:53:07;63.00;;;29.50;;
5682;SDS011;2864;49.220;8.654;2023-02-10T06:55:33;64.90;;;30.37;;
5682;SDS011;2864;49.220;8.654;2023-02-10T06:58:00;56.30;;;28.90;;
5682;SDS011;2864;49.220;8.654;2023-02-10T07:00:26;62.10;;;30.87;;
5682;SDS011;2864;49.220;8.654;2023-02-10T07:02:53;65.33;;;31.10;;
5682;SDS011;2864;49.220;8.654;2023-02-10T07:05:18;62.83;;;30.40;;
5682;SDS011;2864;49.220;8.654;2023-02-10T07:07:44;52.87;;;28.33;;
5682;SDS011;2864;49.220;8.654;2023-02-10T07:10:10;58.60;;;31.20;;
5682;SDS011;2864;49.220;8.654;2023-02-10T07:12:36;72.43;;;31.53;;
5682;SDS011;2864;49.220;8.654;2023-02-10T07:15:03;65.97;;;33.73;;
5682;SDS011;2864;49.220;8.654;2023-02-10T07:17:29;65.77;;;31.57;;
5682;SDS011;2864;49.220;8.654;2023-02-10T07:19:55;67.20;;;32.50;;
5682;SDS011;2864;49.220;8.654;2023-02-10T07:22:21;64.23;;;32.97;;
5682;SDS011;2864;49.220;8.654;2023-02-10T07:24:47;74.20;;;34.30;;
5682;SDS011;2864;49.220;8.654;2023-02-10T07:27:13;67.43;;;33.30;;
5682;SDS011;2864;49.220;8.654;2023-02-10T07:29:39;73.60;;;36.97;;
5682;SDS011;2864;49.220;8.654;2023-02-10T07:32:05;75.60;;;36.00;;
5682;SDS011;2864;49.220;8.654;2023-02-10T07:34:31;82.43;;;37.10;;
5682;SDS011;2864;49.220;8.654;2023-02-10T07:36:59;83.37;;;37.60;;
5682;SDS011;2864;49.220;8.654;2023-02-10T07:39:25;72.67;;;35.33;;
5682;SDS011;2864;49.220;8.654;2023-02-10T07:41:52;70.13;;;35.37;;
5682;SDS011;2864;49.220;8.654;2023-02-10T07:44:18;71.80;;;35.43;;
5682;SDS011;2864;49.220;8.654;2023-02-10T07:46:45;74.07;;;35.77;;
5682;SDS011;2864;49.220;8.654;2023-02-10T07:49:11;66.87;;;35.37;;
5682;SDS011;2864;49.220;8.654;2023-02-10T07:51:37;80.93;;;37.47;;
5682;SDS011;2864;49.220;8.654;2023-02-10T07:54:03;75.47;;;37.30;;
5682;SDS011;2864;49.220;8.654;2023-02-10T07:56:30;81.80;;;37.07;;
5682;SDS011;2864;49.220;8.654;2023-02-10T07:58:56;81.73;;;40.23;;
5682;SDS011;2864;49.220;8.654;2023-02-10T08:01:22;80.30;;;40.07;;
5682;SDS011;2864;49.220;8.654;2023-02-10T08:03:48;72.63;;;37.43;;
5682;SDS011;2864;49.220;8.654;2023-02-10T08:06:18;80.53;;;37.70;;
5682;SDS011;2864;49.220;8.654;2023-02-10T08:08:45;65.23;;;32.23;;
5682;SDS011;2864;49.220;8.654;2023-02-10T08:11:11;66.53;;;33.70;;
5682;SDS011;2864;49.220;8.654;2023-02-10T08:13:37;63.23;;;33.37;;
5682;SDS011;2864;49.220;8.654;2023-02-10T08:16:04;58.80;;;31.17;;
5682;SDS011;2864;49.220;8.654;2023-02-10T08:18:32;60.10;;;30.60;;
5682;SDS011;2864;49.220;8.654;2023-02-10T08:20:59;49.83;;;28.00;;
5682;SDS011;2864;49.220;8.654;2023-02-10T08:23:25;50.97;;;29.53;;
5682;SDS011;2864;49.220;8.654;2023-02-10T08:25:51;38.77;;;20.27;;
5682;SDS011;2864;49.220;8.654;2023-02-10T08:28:17;51.33;;;28.40;;
5682;SDS011;2864;49.220;8.654;2023-02-10T08:30:43;55.90;;;27.63;;
5682;SDS011;2864;49.220;8.654;2023-02-10T08:33:09;49.67;;;26.13;;
5682;SDS011;2864;49.220;8.654;2023-02-10T08:35:38;49.93;;;27.67;;
5682;SDS011;2864;49.220;8.654;2023-02-10T08:38:04;49.93;;;27.20;;
5682;SDS011;2864;49.220;8.654;2023-02-10T08:40:31;48.03;;;27.23;;
5682;SDS011;2864;49.220;8.654;2023-02-10T08:42:57;47.23;;;25.67;;
5682;SDS011;2864;49.220;8.654;2023-02-10T08:45:24;41.60;;;24.87;;
5682;SDS011;2864;49.220;8.654;2023-02-10T08:47:50;44.83;;;25.77;;
5682;SDS011;2864;49.220;8.654;2023-02-10T08:50:16;43.77;;;25.27;;
5682;SDS011;2864;49.220;8.654;2023-02-10T08:52:42;42.70;;;25.20;;
5682;SDS011;2864;49.220;8.654;2023-02-10T08:55:08;43.67;;;25.90;;
5682;SDS011;2864;49.220;8.654;2023-02-10T08:57:36;41.20;;;24.50;;
5682;SDS011;2864;49.220;8.654;2023-02-10T09:00:02;43.27;;;23.70;;
5682;SDS011;2864;49.220;8.654;2023-02-10T09:02:28;40.50;;;24.33;;
5682;SDS011;2864;49.220;8.654;2023-02-10T09:04:54;43.63;;;24.47;;
5682;SDS011;2864;49.220;8.654;2023-02-10T09:07:20;43.00;;;23.30;;
5682;SDS011;2864;49.220;8.654;2023-02-10T09:09:46;41.30;;;23.17;;
5682;SDS011;2864;49.220;8.654;2023-02-10T09:12:12;42.20;;;23.53;;
5682;SDS011;2864;49.220;8.654;2023-02-10T09:14:38;41.27;;;23.07;;
5682;SDS011;2864;49.220;8.654;2023-02-10T09:17:05;39.90;;;23.67;;
5682;SDS011;2864;49.220;8.654;2023-02-10T09:19:33;44.20;;;23.67;;
5682;SDS011;2864;49.220;8.654;2023-02-10T09:21:59;39.27;;;23.07;;
5682;SDS011;2864;49.220;8.654;2023-02-10T09:24:25;37.90;;;21.93;;
5682;SDS011;2864;49.220;8.654;2023-02-10T09:26:51;40.33;;;23.10;;
5682;SDS011;2864;49.220;8.654;2023-02-10T09:29:17;39.67;;;22.77;;
5682;SDS011;2864;49.220;8.654;2023-02-10T09:31:43;42.33;;;24.20;;
5682;SDS011;2864;49.220;8.654;2023-02-10T09:34:09;38.87;;;23.77;;
5682;SDS011;2864;49.220;8.654;2023-02-10T09:36:35;43.83;;;24.57;;
5682;SDS011;2864;49.220;8.654;2023-02-10T09:39:01;37.60;;;23.13;;
5682;SDS011;2864;49.220;8.654;2023-02-10T09:46:56;42.60;;;23.37;;
5682;SDS011;2864;49.220;8.654;2023-02-10T09:49:36;38.90;;;23.73;;
5682;SDS011;2864;49.220;8.654;2023-02-10T09:54:34;37.07;;;22.47;;
5682;SDS011;2864;49.220;8.654;2023-02-10T09:57:07;45.63;;;24.27;;
5682;SDS011;2864;49.220;8.654;2023-02-10T09:59:34;38.37;;;22.70;;
5682;SDS011;2864;49.220;8.654;2023-02-10T10:02:04;41.97;;;24.17;;
5682;SDS011;2864;49.220;8.654;2023-02-10T10:04:33;43.03;;;23.20;;
5682;SDS011;2864;49.220;8.654;2023-02-10T10:07:03;39.90;;;22.60;;
5682;SDS011;2864;49.220;8.654;2023-02-10T10:09:35;37.77;;;23.70;;
5682;SDS011;2864;49.220;8.654;2023-02-10T10:12:03;37.40;;;23.00;;
5682;SDS011;2864;49.220;8.654;2023-02-10T10:14:33;39.87;;;23.90;;
5682;SDS011;2864;49.220;8.654;2023-02-10T10:17:23;38.13;;;22.57;;
5682;SDS011;2864;49.220;8.654;2023-02-10T10:20:05;38.27;;;23.17;;
5682;SDS011;2864;49.220;8.654;2023-02-10T10:30:25;38.20;;;23.17;;
5682;SDS011;2864;49.220;8.654;2023-02-10T10:33:10;34.47;;;20.43;;
5682;SDS011;2864;49.220;8.654;2023-02-10T10:35:40;43.57;;;23.73;;
5682;SDS011;2864;49.220;8.654;2023-02-10T10:38:15;42.30;;;23.47;;
5682;SDS011;2864;49.220;8.654;2023-02-10T10:40:42;40.83;;;23.23;;
5682;SDS011;2864;49.220;8.654;2023-02-10T10:43:12;37.83;;;22.07;;
5682;SDS011;2864;49.220;8.654;2023-02-10T10:45:39;38.30;;;22.77;;
5682;SDS011;2864;49.220;8.654;2023-02-10T10:48:12;36.80;;;21.77;;
5682;SDS011;2864;49.220;8.654;2023-02-10T10:50:38;41.93;;;24.40;;
5682;SDS011;2864;49.220;8.654;2023-02-10T10:53:10;36.53;;;22.20;;
5682;SDS011;2864;49.220;8.654;2023-02-10T10:55:38;36.83;;;22.83;;
5682;SDS011;2864;49.220;8.654;2023-02-10T10:58:23;40.87;;;22.37;;
5682;SDS011;2864;49.220;8.654;2023-02-10T11:00:57;38.43;;;22.20;;
5682;SDS011;2864;49.220;8.654;2023-02-10T11:03:24;44.47;;;22.20;;
5682;SDS011;2864;49.220;8.654;2023-02-10T11:06:07;35.53;;;22.33;;
5682;SDS011;2864;49.220;8.654;2023-02-10T11:08:45;37.30;;;22.60;;
5682;SDS011;2864;49.220;8.654;2023-02-10T11:11:13;38.47;;;22.60;;
5682;SDS011;2864;49.220;8.654;2023-02-10T11:13:41;38.17;;;21.97;;
5682;SDS011;2864;49.220;8.654;2023-02-10T11:16:14;31.87;;;21.20;;
5682;SDS011;2864;49.220;8.654;2023-02-10T11:18:51;33.93;;;20.80;;
5682;SDS011;2864;49.220;8.654;2023-02-10T11:21:17;38.10;;;20.43;;
5682;SDS011;2864;49.220;8.654;2023-02-10T11:23:47;36.47;;;22.53;;
5682;SDS011;2864;49.220;8.654;2023-02-10T11:26:22;37.87;;;21.30;;
5682;SDS011;2864;49.220;8.654;2023-02-10T11:28:48;32.87;;;20.70;;
5682;SDS011;2864;49.220;8.654;2023-02-10T11:33:58;37.03;;;20.50;;
5682;SDS011;2864;49.220;8.654;2023-02-10T11:36:32;33.07;;;19.93;;
5682;SDS011;2864;49.220;8.654;2023-02-10T11:39:00;34.77;;;20.23;;
5682;SDS011;2864;49.220;8.654;2023-02-10T11:41:28;32.63;;;20.50;;
5682;SDS011;2864;49.220;8.654;2023-02-10T11:43:54;35.60;;;21.13;;
5682;SDS011;2864;49.220;8.654;2023-02-10T11:46:21;33.90;;;20.83;;
5682;SDS011;2864;49.220;8.654;2023-02-10T11:51:28;31.63;;;19.53;;
5682;SDS011;2864;49.220;8.654;2023-02-10T11:53:54;31.57;;;19.97;;
5682;SDS011;2864;49.220;8.654;2023-02-10T11:56:23;33.27;;;19.63;;
5682;SDS011;2864;49.220;8.654;2023-02-10T12:01:49;32.57;;;20.03;;
5682;SDS011;2864;49.220;8.654;2023-02-10T12:07:15;34.67;;;19.27;;
5682;SDS011;2864;49.220;8.654;2023-02-10T12:10:47;30.90;;;18.77;;
5682;SDS011;2864;49.220;8.654;2023-02-10T12:13:02;29.47;;;19.53;;
5682;SDS011;2864;49.220;8.654;2023-02-10T12:28:06;30.73;;;18.40;;
5682;SDS011;2864;49.220;8.654;2023-02-10T12:30:55;32.93;;;18.57;;
5682;SDS011;2864;49.220;8.654;2023-02-10T12:36:03;35.23;;;18.30;;
5682;SDS011;2864;49.220;8.654;2023-02-10T12:38:42;31.70;;;19.20;;
5682;SDS011;2864;49.220;8.654;2023-02-10T12:44:08;27.83;;;16.63;;
5682;SDS011;2864;49.220;8.654;2023-02-10T12:47:12;26.97;;;17.50;;
5682;SDS011;2864;49.220;8.654;2023-02-10T12:52:09;26.27;;;17.50;;
5682;SDS011;2864;49.220;8.654;2023-02-10T12:54:46;28.93;;;17.57;;
5682;SDS011;2864;49.220;8.654;2023-02-10T12:57:16;29.37;;;18.53;;
5682;SDS011;2864;49.220;8.654;2023-02-10T12:59:48;27.80;;;17.63;;
5682;SDS011;2864;49.220;8.654;2023-02-10T13:02:26;25.57;;;16.83;;
5682;SDS011;2864;49.220;8.654;2023-02-10T13:04:54;29.50;;;17.50;;
5682;SDS011;2864;49.220;8.654;2023-02-10T13:12:38;24.83;;;15.90;;
5682;SDS011;2864;49.220;8.654;2023-02-10T13:15:12;30.90;;;17.30;;
5682;SDS011;2864;49.220;8.654;2023-02-10T13:17:41;28.50;;;17.03;;
5682;SDS011;2864;49.220;8.654;2023-02-10T13:25:53;25.27;;;16.90;;
5682;SDS011;2864;49.220;8.654;2023-02-10T13:31:01;26.63;;;17.40;;
5682;SDS011;2864;49.220;8.654;2023-02-10T13:35:55;26.35;;;19.40;;
5682;SDS011;2864;49.220;8.654;2023-02-10T13:38:22;31.03;;;18.80;;
5682;SDS011;2864;49.220;8.654;2023-02-10T13:40:51;26.70;;;17.80;;
5682;SDS011;2864;49.220;8.654;2023-02-10T13:43:28;27.70;;;17.43;;
5682;SDS011;2864;49.220;8.654;2023-02-10T13:45:56;26.23;;;18.23;;
5682;SDS011;2864;49.220;8.654;2023-02-10T13:48:23;28.57;;;18.37;;
5682;SDS011;2864;49.220;8.654;2023-02-10T13:51:01;28.40;;;18.07;;
5682;SDS011;2864;49.220;8.654;2023-02-10T13:56:30;27.77;;;17.63;;
5682;SDS011;2864;49.220;8.654;2023-02-10T13:58:49;27.10;;;17.07;;
5682;SDS011;2864;49.220;8.654;2023-02-10T14:01:29;32.10;;;17.60;;
5682;SDS011;2864;49.220;8.654;2023-02-10T14:03:55;26.40;;;16.90;;
5682;SDS011;2864;49.220;8.654;2023-02-10T14:06:31;30.17;;;17.80;;
5682;SDS011;2864;49.220;8.654;2023-02-10T14:09:02;29.37;;;16.30;;
5682;SDS011;2864;49.220;8.654;2023-02-10T14:11:35;27.70;;;16.83;;
5682;SDS011;2864;49.220;8.654;2023-02-10T14:14:16;21.77;;;15.83;;
5682;SDS011;2864;49.220;8.654;2023-02-10T14:19:33;24.97;;;16.20;;
5682;SDS011;2864;49.220;8.654;2023-02-10T14:22:00;23.73;;;15.83;;
5682;SDS011;2864;49.220;8.654;2023-02-10T14:24:27;26.53;;;16.77;;
5682;SDS011;2864;49.220;8.654;2023-02-10T14:26:57;25.57;;;16.63;;
5682;SDS011;2864;49.220;8.654;2023-02-10T14:29:26;21.80;;;15.20;;
5682;SDS011;2864;49.220;8.654;2023-02-10T14:31:55;24.20;;;15.60;;
5682;SDS011;2864;49.220;8.654;2023-02-10T14:36:52;23.50;;;15.43;;
5682;SDS011;2864;49.220;8.654;2023-02-10T14:39:23;23.80;;;15.80;;
5682;SDS011;2864;49.220;8.654;2023-02-10T14:41:50;25.47;;;16.50;;
5682;SDS011;2864;49.220;8.654;2023-02-10T14:47:16;23.23;;;15.80;;
5682;SDS011;2864;49.220;8.654;2023-02-10T14:49:42;25.10;;;16.67;;
5682;SDS011;2864;49.220;8.654;2023-02-10T14:54:50;25.93;;;17.03;;
5682;SDS011;2864;49.220;8.654;2023-02-10T14:57:18;25.47;;;16.10;;
5682;SDS011;2864;49.220;8.654;2023-02-10T14:59:44;28.13;;;17.07;;
5682;SDS011;2864;49.220;8.654;2023-02-10T15:02:18;26.63;;;16.97;;
5682;SDS011;2864;49.220;8.654;2023-02-10T15:04:45;26.70;;;16.80;;
5682;SDS011;2864;49.220;8.654;2023-02-10T15:07:14;24.47;;;16.17;;
5682;SDS011;2864;49.220;8.654;2023-02-10T15:09:42;28.93;;;17.27;;
5682;SDS011;2864;49.220;8.654;2023-02-10T15:12:08;25.33;;;16.03;;
5682;SDS011;2864;49.220;8.654;2023-02-10T15:14:46;27.57;;;16.03;;
5682;SDS011;2864;49.220;8.654;2023-02-10T15:17:20;25.77;;;15.23;;
5682;SDS011;2864;49.220;8.654;2023-02-10T15:19:55;22.33;;;14.73;;
5682;SDS011;2864;49.220;8.654;2023-02-10T15:22:31;27.93;;;14.70;;
5682;SDS011;2864;49.220;8.654;2023-02-10T15:24:57;22.00;;;14.50;;
5682;SDS011;2864;49.220;8.654;2023-02-10T15:27:23;31.03;;;15.27;;
5682;SDS011;2864;49.220;8.654;2023-02-10T15:29:49;27.70;;;14.53;;
5682;SDS011;2864;49.220;8.654;2023-02-10T15:32:21;25.03;;;14.63;;
5682;SDS011;2864;49.220;8.654;2023-02-10T15:34:48;24.57;;;15.03;;
5682;SDS011;2864;49.220;8.654;2023-02-10T15:37:20;25.10;;;15.30;;
5682;SDS011;2864;49.220;8.654;2023-02-10T15:39:59;22.97;;;14.93;;
5682;SDS011;2864;49.220;8.654;2023-02-10T15:42:26;24.23;;;14.63;;
5682;SDS011;2864;49.220;8.654;2023-02-10T15:45:14;24.90;;;14.03;;
5682;SDS011;2864;49.220;8.654;2023-02-10T15:50:08;24.23;;;15.07;;
5682;SDS011;2864;49.220;8.654;2023-02-10T15:52:38;24.10;;;14.67;;
5682;SDS011;2864;49.220;8.654;2023-02-10T15:55:15;28.60;;;15.63;;
5682;SDS011;2864;49.220;8.654;2023-02-10T15:57:42;25.23;;;14.77;;
5682;SDS011;2864;49.220;8.654;2023-02-10T16:00:28;26.03;;;15.37;;
5682;SDS011;2864;49.220;8.654;2023-02-10T16:02:54;25.93;;;14.30;;
5682;SDS011;2864;49.220;8.654;2023-02-10T16:05:21;25.50;;;15.23;;
5682;SDS011;2864;49.220;8.654;2023-02-10T16:07:47;25.80;;;15.33;;
5682;SDS011;2864;49.220;8.654;2023-02-10T16:10:14;30.37;;;16.30;;
5682;SDS011;2864;49.220;8.654;2023-02-10T16:12:42;25.47;;;15.17;;
5682;SDS011;2864;49.220;8.654;2023-02-10T16:15:11;29.00;;;15.43;;
5682;SDS011;2864;49.220;8.654;2023-02-10T16:17:39;26.77;;;15.60;;
5682;SDS011;2864;49.220;8.654;2023-02-10T16:20:13;26.33;;;15.30;;
5682;SDS011;2864;49.220;8.654;2023-02-10T16:22:40;26.70;;;15.73;;
5682;SDS011;2864;49.220;8.654;2023-02-10T16:25:06;24.90;;;15.23;;
5682;SDS011;2864;49.220;8.654;2023-02-10T16:27:33;27.70;;;16.43;;
5682;SDS011;2864;49.220;8.654;2023-02-10T16:29:59;29.30;;;17.83;;
5682;SDS011;2864;49.220;8.654;2023-02-10T16:32:25;28.93;;;16.93;;
5682;SDS011;2864;49.220;8.654;2023-02-10T16:34:51;32.37;;;18.90;;
5682;SDS011;2864;49.220;8.654;2023-02-10T16:37:17;30.90;;;18.43;;
5682;SDS011;2864;49.220;8.654;2023-02-10T16:39:45;33.87;;;18.73;;
5682;SDS011;2864;49.220;8.654;2023-02-10T16:42:11;32.07;;;17.87;;